createdAt,value
2017-08-01T00:01:00.818Z,21.86
2017-08-01T00:02:06.679Z,21.86
2017-08-01T00:03:12.687Z,21.88
2017-08-01T00:04:18.698Z,21.84
2017-08-01T00:05:25.649Z,21.80
2017-08-01T00:06:31.664Z,21.76
2017-08-01T00:07:37.629Z,21.72
2017-08-01T00:08:43.690Z,21.73
2017-08-01T00:09:49.799Z,21.72
2017-08-01T00:10:56.446Z,21.75
2017-08-01T00:12:02.546Z,21.74
2017-08-01T00:13:08.412Z,21.73
2017-08-01T00:14:14.610Z,21.75
2017-08-01T00:15:20.768Z,21.71
2017-08-01T00:16:29.190Z,21.74
2017-08-01T00:17:35.216Z,21.75
2017-08-01T00:18:41.390Z,21.82
2017-08-01T00:19:47.446Z,21.84
2017-08-01T00:20:54.074Z,21.93
2017-08-01T00:22:00.765Z,21.92
2017-08-01T00:23:06.789Z,21.83
2017-08-01T00:24:13.030Z,21.75
2017-08-01T00:25:19.106Z,21.71
2017-08-01T00:26:25.725Z,21.65
2017-08-01T00:27:31.731Z,21.55
2017-08-01T00:28:37.824Z,21.57
2017-08-01T00:29:43.905Z,21.62
2017-08-01T00:30:52.043Z,21.62
2017-08-01T00:31:58.058Z,21.55
2017-08-01T00:33:04.180Z,21.45
2017-08-01T00:34:10.190Z,21.33
2017-08-01T00:35:16.281Z,21.31
2017-08-01T00:36:22.914Z,21.29
2017-08-01T00:37:29.063Z,21.33
2017-08-01T00:38:35.523Z,21.24
2017-08-01T00:39:41.542Z,21.21
2017-08-01T00:40:47.587Z,21.19
2017-08-01T00:41:53.616Z,21.16
2017-08-01T00:42:59.678Z,21.16
2017-08-01T00:44:05.977Z,21.15
2017-08-01T00:45:12.609Z,21.10
2017-08-01T00:46:18.641Z,21.07
2017-08-01T00:47:24.642Z,21.08
2017-08-01T00:48:30.727Z,21.08
2017-08-01T00:49:36.748Z,21.06
2017-08-01T00:50:43.645Z,21.17
2017-08-01T00:51:52.641Z,21.21
2017-08-01T00:52:58.654Z,21.30
2017-08-01T00:54:05.443Z,21.32
2017-08-01T00:55:11.682Z,21.31
2017-08-01T00:56:18.581Z,21.38
2017-08-01T00:57:24.593Z,21.24
2017-08-01T00:58:30.675Z,21.17
2017-08-01T00:59:36.703Z,21.19
2017-08-01T01:00:42.504Z,21.16
2017-08-01T01:01:48.370Z,21.21
2017-08-01T01:02:54.421Z,21.13
2017-08-01T01:04:00.446Z,21.02
2017-08-01T01:05:06.459Z,21.00
2017-08-01T01:06:12.566Z,21.02
2017-08-01T01:07:19.414Z,21.03
2017-08-01T01:08:25.431Z,20.89
2017-08-01T01:09:31.101Z,20.76
2017-08-01T01:10:37.116Z,20.72
2017-08-01T01:11:43.169Z,20.82
2017-08-01T01:12:49.346Z,20.73
2017-08-01T01:13:56.196Z,20.77
2017-08-01T01:15:02.311Z,20.88
2017-08-01T01:16:08.317Z,20.86
2017-08-01T01:17:14.399Z,20.95
2017-08-01T01:18:20.547Z,20.97
2017-08-01T01:19:26.551Z,21.01
2017-08-01T01:20:32.674Z,20.97
2017-08-01T01:21:38.725Z,20.96
2017-08-01T01:22:44.729Z,20.97
2017-08-01T01:23:50.777Z,20.97
2017-08-01T01:24:56.786Z,20.93
2017-08-01T01:26:03.510Z,20.93
2017-08-01T01:27:09.563Z,20.91
2017-08-01T01:28:15.640Z,20.99
2017-08-01T01:29:21.734Z,20.85
2017-08-01T01:30:27.457Z,20.89
2017-08-01T01:31:32.917Z,20.96
2017-08-01T01:32:38.652Z,20.97
2017-08-01T01:33:44.622Z,21.06
2017-08-01T01:34:50.066Z,21.14
2017-08-01T01:35:55.481Z,21.25
2017-08-01T01:37:00.774Z,21.23
2017-08-01T01:38:05.877Z,21.12
2017-08-01T01:39:13.934Z,21.24
2017-08-01T01:40:19.407Z,21.10
2017-08-01T01:41:24.737Z,21.10
2017-08-01T01:42:30.046Z,21.08
2017-08-01T01:43:35.156Z,21.09
2017-08-01T01:44:40.394Z,21.09
2017-08-01T01:45:46.297Z,21.02
2017-08-01T01:46:52.422Z,20.98
2017-08-01T01:47:57.714Z,20.95
2017-08-01T01:49:03.355Z,20.92
2017-08-01T01:50:08.495Z,20.94
2017-08-01T01:51:13.794Z,20.95
2017-08-01T01:52:19.171Z,20.99
2017-08-01T01:53:25.016Z,21.10
2017-08-01T01:54:30.453Z,21.19
2017-08-01T01:55:36.491Z,21.24
2017-08-01T01:56:42.509Z,21.31
2017-08-01T01:57:48.689Z,21.42
2017-08-01T01:58:55.483Z,21.52
2017-08-01T02:00:01.529Z,21.65
2017-08-01T02:01:07.417Z,21.77
2017-08-01T02:02:13.510Z,21.80
2017-08-01T02:03:19.577Z,21.75
2017-08-01T02:04:25.405Z,21.72
2017-08-01T02:05:31.419Z,21.73
2017-08-01T02:06:37.476Z,21.77
2017-08-01T02:07:43.712Z,21.76
2017-08-01T02:08:50.299Z,21.79
2017-08-01T02:09:55.760Z,21.88
2017-08-01T02:11:01.778Z,22.01
2017-08-01T02:12:07.955Z,21.95
2017-08-01T02:13:14.338Z,22.03
2017-08-01T02:14:20.355Z,21.91
2017-08-01T02:15:26.105Z,21.84
2017-08-01T02:16:32.217Z,21.79
2017-08-01T02:17:38.320Z,21.78
2017-08-01T02:18:44.478Z,21.83
2017-08-01T02:19:50.636Z,21.75
2017-08-01T02:20:55.975Z,21.70
2017-08-01T02:22:02.185Z,21.65
2017-08-01T02:23:17.447Z,21.83
2017-08-01T02:24:23.151Z,21.81
2017-08-01T02:25:28.838Z,21.87
2017-08-01T02:26:34.721Z,21.76
2017-08-01T02:27:40.725Z,21.63
2017-08-01T02:28:46.769Z,21.55
2017-08-01T02:29:53.003Z,21.49
2017-08-01T02:30:58.694Z,21.51
2017-08-01T02:32:04.372Z,21.64
2017-08-01T02:33:10.401Z,21.61
2017-08-01T02:34:16.077Z,21.53
2017-08-01T02:35:22.179Z,21.52
2017-08-01T02:36:27.855Z,21.64
2017-08-01T02:37:33.858Z,21.63
2017-08-01T02:38:40.013Z,21.58
2017-08-01T02:39:46.072Z,21.60
2017-08-01T02:40:52.186Z,21.56
2017-08-01T02:41:58.180Z,21.63
2017-08-01T02:43:04.197Z,21.69
2017-08-01T02:44:10.256Z,21.63
2017-08-01T02:45:16.033Z,21.53
2017-08-01T02:46:22.226Z,21.71
2017-08-01T02:47:28.261Z,21.88
2017-08-01T02:48:34.021Z,21.82
2017-08-01T02:49:40.084Z,21.73
2017-08-01T02:50:46.150Z,21.60
2017-08-01T02:51:52.185Z,21.55
2017-08-01T02:52:58.284Z,21.54
2017-08-01T02:54:04.417Z,21.57
2017-08-01T02:55:10.522Z,21.55
2017-08-01T02:56:17.238Z,21.54
2017-08-01T02:57:24.036Z,21.72
2017-08-01T02:58:30.022Z,21.77
2017-08-01T02:59:36.120Z,21.72
2017-08-01T03:00:42.109Z,21.68
2017-08-01T03:01:47.937Z,21.52
2017-08-01T03:02:53.927Z,21.50
2017-08-01T03:03:59.899Z,21.60
2017-08-01T03:05:05.874Z,21.74
2017-08-01T03:06:11.865Z,21.65
2017-08-01T03:07:17.910Z,21.59
2017-08-01T03:08:24.620Z,21.55
2017-08-01T03:09:30.715Z,21.49
2017-08-01T03:10:36.817Z,21.49
2017-08-01T03:11:43.670Z,21.45
2017-08-01T03:12:49.881Z,21.44
2017-08-01T03:13:55.951Z,21.36
2017-08-01T03:15:02.046Z,21.28
2017-08-01T03:16:08.054Z,21.26
2017-08-01T03:17:14.215Z,21.26
2017-08-01T03:18:20.213Z,21.31
2017-08-01T03:19:26.996Z,21.40
2017-08-01T03:20:32.997Z,21.38
2017-08-01T03:21:39.001Z,21.44
2017-08-01T03:22:45.048Z,21.34
2017-08-01T03:23:51.078Z,21.36
2017-08-01T03:24:57.086Z,21.49
2017-08-01T03:26:03.750Z,21.55
2017-08-01T03:27:09.761Z,21.57
2017-08-01T03:28:16.533Z,21.68
2017-08-01T03:29:23.493Z,21.59
2017-08-01T03:30:29.495Z,21.57
2017-08-01T03:31:36.337Z,21.60
2017-08-01T03:32:42.359Z,21.67
2017-08-01T03:33:48.508Z,21.71
2017-08-01T03:34:54.594Z,21.71
2017-08-01T03:36:00.599Z,21.62
2017-08-01T03:37:07.231Z,21.58
2017-08-01T03:38:13.244Z,21.55
2017-08-01T03:39:19.564Z,21.62
2017-08-01T03:40:25.881Z,21.67
2017-08-01T03:41:32.057Z,21.68
2017-08-01T03:42:38.949Z,21.64
2017-08-01T03:43:45.054Z,21.66
2017-08-01T03:44:51.823Z,21.63
2017-08-01T03:45:57.849Z,21.63
2017-08-01T03:47:04.103Z,21.63
2017-08-01T03:48:10.192Z,21.66
2017-08-01T03:49:16.955Z,21.67
2017-08-01T03:50:24.272Z,21.63
2017-08-01T03:51:31.971Z,21.63
2017-08-01T03:52:38.553Z,21.62
2017-08-01T03:53:44.596Z,21.72
2017-08-01T03:54:50.606Z,21.68
2017-08-01T03:55:56.674Z,21.73
2017-08-01T03:57:02.677Z,21.70
2017-08-01T03:58:08.756Z,21.71
2017-08-01T03:59:15.494Z,21.64
2017-08-01T04:00:21.521Z,21.69
2017-08-01T04:01:27.361Z,21.71
2017-08-01T04:02:34.328Z,21.75
2017-08-01T04:03:41.182Z,21.75
2017-08-01T04:04:47.218Z,21.75
2017-08-01T04:05:53.288Z,21.77
2017-08-01T04:06:59.345Z,21.72
2017-08-01T04:08:05.463Z,21.72
2017-08-01T04:09:11.497Z,21.75
2017-08-01T04:10:17.493Z,21.78
2017-08-01T04:11:23.604Z,21.64
2017-08-01T04:12:29.910Z,21.51
2017-08-01T04:13:35.911Z,21.29
2017-08-01T04:14:41.911Z,21.26
2017-08-01T04:15:48.593Z,21.16
2017-08-01T04:16:54.594Z,21.16
2017-08-01T04:18:00.673Z,21.00
2017-08-01T04:19:07.347Z,20.93
2017-08-01T04:20:14.093Z,20.86
2017-08-01T04:21:20.261Z,20.84
2017-08-01T04:22:33.491Z,20.83
2017-08-01T04:23:43.296Z,20.73
2017-08-01T04:24:52.544Z,20.72
2017-08-01T04:26:00.055Z,20.76
2017-08-01T04:27:07.893Z,20.61
2017-08-01T04:28:16.333Z,20.55
2017-08-01T04:29:22.498Z,20.57
2017-08-01T04:30:35.459Z,20.49
2017-08-01T04:31:41.928Z,20.42
2017-08-01T04:32:48.251Z,20.33
2017-08-01T04:33:54.351Z,20.38
2017-08-01T04:35:00.378Z,20.28
2017-08-01T04:36:07.191Z,20.19
2017-08-01T04:37:13.904Z,20.06
2017-08-01T04:38:19.906Z,20.02
2017-08-01T04:39:25.926Z,20.13
2017-08-01T04:40:32.751Z,20.10
2017-08-01T04:41:39.497Z,20.14
2017-08-01T04:42:45.760Z,20.17
2017-08-01T04:43:53.850Z,20.24
2017-08-01T04:45:06.188Z,20.21
2017-08-01T04:46:12.296Z,20.31
2017-08-01T04:47:18.636Z,20.20
2017-08-01T04:48:25.975Z,20.14
2017-08-01T04:49:31.998Z,20.02
2017-08-01T04:50:38.479Z,19.80
2017-08-01T04:51:44.521Z,19.87
2017-08-01T04:52:50.525Z,20.01
2017-08-01T04:53:56.538Z,19.92
2017-08-01T04:55:02.561Z,20.00
2017-08-01T04:56:08.568Z,19.76
2017-08-01T04:57:14.638Z,19.72
2017-08-01T04:58:20.822Z,19.65
2017-08-01T04:59:26.846Z,19.60
2017-08-01T05:00:32.853Z,19.57
2017-08-01T05:01:38.666Z,19.69
2017-08-01T05:02:44.718Z,19.84
2017-08-01T05:03:50.734Z,19.94
2017-08-01T05:04:56.837Z,20.01
2017-08-01T05:06:02.951Z,19.99
2017-08-01T05:07:08.962Z,19.94
2017-08-01T05:08:15.113Z,19.85
2017-08-01T05:09:21.122Z,19.82
2017-08-01T05:10:27.383Z,19.65
2017-08-01T05:11:33.395Z,19.67
2017-08-01T05:12:39.389Z,19.55
2017-08-01T05:13:46.114Z,19.72
2017-08-01T05:14:52.126Z,19.68
2017-08-01T05:15:58.136Z,19.67
2017-08-01T05:17:04.226Z,19.75
2017-08-01T05:18:10.243Z,19.77
2017-08-01T05:19:16.267Z,19.85
2017-08-01T05:20:22.419Z,19.84
2017-08-01T05:21:28.441Z,19.79
2017-08-01T05:22:34.574Z,19.72
2017-08-01T05:23:40.641Z,19.94
2017-08-01T05:24:46.822Z,20.05
2017-08-01T05:25:52.834Z,19.98
2017-08-01T05:26:58.883Z,19.90
2017-08-01T05:28:05.265Z,19.94
2017-08-01T05:29:11.428Z,19.87
2017-08-01T05:30:17.493Z,19.94
2017-08-01T05:31:23.402Z,19.94
2017-08-01T05:32:29.447Z,19.98
2017-08-01T05:33:35.468Z,20.11
2017-08-01T05:34:42.244Z,20.04
2017-08-01T05:35:48.362Z,20.05
2017-08-01T05:36:54.496Z,20.06
2017-08-01T05:38:00.513Z,20.15
2017-08-01T05:39:06.179Z,20.05
2017-08-01T05:40:12.253Z,20.06
2017-08-01T05:41:18.327Z,19.98
2017-08-01T05:42:24.372Z,20.14
2017-08-01T05:43:30.459Z,20.14
2017-08-01T05:44:37.057Z,20.06
2017-08-01T05:45:43.071Z,20.10
2017-08-01T05:46:49.833Z,20.11
2017-08-01T05:47:55.860Z,20.00
2017-08-01T05:49:01.869Z,19.96
2017-08-01T05:50:08.050Z,19.98
2017-08-01T05:51:14.925Z,20.07
2017-08-01T05:52:21.155Z,20.19
2017-08-01T05:53:27.927Z,20.30
2017-08-01T05:54:33.736Z,20.07
2017-08-01T05:55:39.754Z,20.06
2017-08-01T05:56:45.777Z,19.97
2017-08-01T05:57:51.846Z,19.84
2017-08-01T05:58:57.937Z,19.90
2017-08-01T06:00:04.145Z,20.00
2017-08-01T06:01:10.759Z,20.11
2017-08-01T06:02:16.787Z,20.15
2017-08-01T06:03:23.690Z,20.20
2017-08-01T06:04:29.789Z,20.25
2017-08-01T06:05:35.951Z,20.31
2017-08-01T06:06:42.450Z,20.08
2017-08-01T06:07:48.480Z,20.15
2017-08-01T06:08:54.569Z,20.27
2017-08-01T06:10:00.710Z,20.38
2017-08-01T06:11:06.795Z,20.52
2017-08-01T06:12:12.884Z,20.41
2017-08-01T06:13:18.787Z,20.38
2017-08-01T06:14:24.964Z,20.50
2017-08-01T06:15:30.784Z,20.33
2017-08-01T06:16:36.673Z,20.34
2017-08-01T06:17:42.793Z,20.40
2017-08-01T06:18:48.801Z,20.46
2017-08-01T06:19:54.901Z,20.62
2017-08-01T06:21:01.586Z,20.53
2017-08-01T06:22:07.421Z,20.52
2017-08-01T06:23:13.439Z,20.44
2017-08-01T06:24:19.315Z,20.32
2017-08-01T06:25:25.363Z,20.26
2017-08-01T06:26:31.994Z,20.46
2017-08-01T06:27:38.486Z,20.60
2017-08-01T06:28:45.274Z,20.57
2017-08-01T06:29:51.441Z,20.48
2017-08-01T06:30:57.781Z,20.43
2017-08-01T06:32:03.829Z,20.56
2017-08-01T06:33:09.843Z,20.71
2017-08-01T06:34:15.854Z,20.76
2017-08-01T06:35:21.915Z,20.89
2017-08-01T06:36:27.968Z,20.95
2017-08-01T06:37:34.077Z,21.02
2017-08-01T06:38:40.152Z,21.14
2017-08-01T06:39:46.010Z,21.29
2017-08-01T06:40:52.038Z,21.42
2017-08-01T06:41:58.150Z,21.52
2017-08-01T06:43:04.197Z,21.53
2017-08-01T06:44:10.839Z,21.60
2017-08-01T06:45:17.510Z,21.56
2017-08-01T06:46:23.723Z,21.59
2017-08-01T06:47:29.861Z,21.75
2017-08-01T06:48:36.427Z,21.74
2017-08-01T06:49:42.530Z,21.73
2017-08-01T06:50:48.378Z,21.70
2017-08-01T06:51:54.404Z,21.51
2017-08-01T06:53:00.482Z,21.55
2017-08-01T06:54:06.522Z,21.57
2017-08-01T06:55:12.558Z,21.43
2017-08-01T06:56:18.566Z,21.46
2017-08-01T06:57:24.629Z,21.15
2017-08-01T06:58:30.641Z,20.91
2017-08-01T06:59:36.655Z,21.02
2017-08-01T07:00:42.663Z,20.93
2017-08-01T07:01:48.941Z,20.99
2017-08-01T07:02:55.006Z,21.09
2017-08-01T07:04:01.176Z,21.19
2017-08-01T07:05:07.240Z,21.26
2017-08-01T07:06:13.253Z,21.34
2017-08-01T07:07:19.352Z,21.37
2017-08-01T07:08:25.762Z,21.30
2017-08-01T07:09:31.878Z,21.41
2017-08-01T07:10:37.983Z,21.52
2017-08-01T07:11:44.010Z,21.59
2017-08-01T07:12:50.349Z,21.58
2017-08-01T07:13:57.179Z,21.66
2017-08-01T07:15:03.230Z,21.81
2017-08-01T07:16:09.872Z,21.60
2017-08-01T07:17:15.887Z,21.61
2017-08-01T07:18:21.948Z,21.62
2017-08-01T07:19:27.969Z,21.50
2017-08-01T07:20:34.069Z,21.44
2017-08-01T07:21:40.198Z,21.50
2017-08-01T07:22:46.283Z,21.61
2017-08-01T07:23:52.297Z,21.64
2017-08-01T07:24:58.453Z,21.55
2017-08-01T07:26:04.676Z,21.58
2017-08-01T07:27:10.685Z,21.60
2017-08-01T07:28:16.693Z,21.51
2017-08-01T07:29:22.739Z,21.55
2017-08-01T07:30:28.897Z,21.14
2017-08-01T07:31:34.912Z,21.26
2017-08-01T07:32:41.049Z,21.46
2017-08-01T07:33:47.055Z,21.59
2017-08-01T07:34:53.110Z,21.61
2017-08-01T07:35:59.174Z,21.52
2017-08-01T07:37:05.063Z,21.57
2017-08-01T07:38:11.650Z,21.47
2017-08-01T07:39:17.646Z,21.47
2017-08-01T07:40:24.298Z,21.61
2017-08-01T07:41:30.334Z,21.62
2017-08-01T07:42:36.357Z,21.57
2017-08-01T07:43:43.141Z,21.64
2017-08-01T07:44:49.809Z,21.69
2017-08-01T07:45:55.815Z,21.77
2017-08-01T07:47:01.903Z,21.84
2017-08-01T07:48:07.934Z,21.75
2017-08-01T07:49:13.998Z,21.74
2017-08-01T07:50:20.758Z,21.54
2017-08-01T07:51:26.940Z,21.66
2017-08-01T07:52:33.526Z,21.58
2017-08-01T07:53:39.524Z,21.68
2017-08-01T07:54:45.545Z,21.70
2017-08-01T07:55:51.547Z,21.73
2017-08-01T07:56:57.615Z,21.60
2017-08-01T07:58:03.631Z,21.70
2017-08-01T07:59:09.668Z,21.65
2017-08-01T08:00:15.697Z,21.46
2017-08-01T08:01:21.791Z,21.50
2017-08-01T08:02:27.842Z,21.42
2017-08-01T08:03:34.659Z,21.52
2017-08-01T08:04:40.690Z,21.58
2017-08-01T08:05:46.803Z,21.71
2017-08-01T08:06:53.378Z,21.81
2017-08-01T08:07:59.441Z,21.63
2017-08-01T08:09:04.736Z,21.80
2017-08-01T08:10:10.738Z,21.93
2017-08-01T08:11:16.747Z,22.16
2017-08-01T08:12:22.862Z,22.15
2017-08-01T08:13:29.007Z,22.14
2017-08-01T08:14:35.065Z,22.20
2017-08-01T08:15:41.082Z,22.23
2017-08-01T08:16:47.090Z,22.31
2017-08-01T08:17:53.106Z,22.41
2017-08-01T08:18:59.136Z,22.41
2017-08-01T08:20:05.938Z,22.40
2017-08-01T08:21:11.666Z,22.47
2017-08-01T08:22:17.469Z,22.40
2017-08-01T08:23:24.470Z,22.40
2017-08-01T08:24:30.526Z,22.42
2017-08-01T08:25:36.569Z,22.35
2017-08-01T08:26:42.670Z,22.39
2017-08-01T08:27:48.799Z,22.54
2017-08-01T08:28:54.825Z,22.68
2017-08-01T08:30:01.042Z,22.37
2017-08-01T08:31:07.066Z,22.52
2017-08-01T08:32:13.094Z,22.60
2017-08-01T08:33:19.249Z,22.66
2017-08-01T08:34:25.923Z,22.61
2017-08-01T08:35:32.657Z,22.54
2017-08-01T08:36:38.743Z,22.49
2017-08-01T08:37:44.854Z,22.69
2017-08-01T08:38:50.901Z,22.93
2017-08-01T08:39:56.973Z,23.14
2017-08-01T08:41:03.018Z,23.34
2017-08-01T08:42:09.038Z,23.58
2017-08-01T08:43:15.045Z,23.69
2017-08-01T08:44:21.122Z,23.60
2017-08-01T08:45:27.165Z,23.75
2017-08-01T08:46:33.263Z,23.98
2017-08-01T08:47:40.075Z,24.17
2017-08-01T08:48:46.081Z,24.36
2017-08-01T08:49:52.859Z,24.45
2017-08-01T08:50:58.897Z,24.54
2017-08-01T08:52:05.021Z,24.62
2017-08-01T08:53:11.725Z,24.75
2017-08-01T08:54:17.814Z,24.70
2017-08-01T08:55:23.831Z,24.68
2017-08-01T08:56:29.847Z,24.40
2017-08-01T08:57:35.759Z,24.51
2017-08-01T08:58:41.796Z,24.41
2017-08-01T08:59:47.802Z,24.43
2017-08-01T09:00:54.034Z,24.40
2017-08-01T09:02:00.071Z,24.44
2017-08-01T09:03:06.106Z,24.21
2017-08-01T09:04:12.123Z,23.89
2017-08-01T09:05:18.165Z,24.08
2017-08-01T09:06:24.925Z,24.32
2017-08-01T09:07:30.930Z,24.30
2017-08-01T09:08:37.630Z,24.43
2017-08-01T09:09:43.694Z,24.62
2017-08-01T09:10:49.754Z,24.80
2017-08-01T09:11:55.772Z,24.76
2017-08-01T09:13:01.597Z,24.80
2017-08-01T09:14:07.666Z,24.80
2017-08-01T09:15:13.747Z,24.97
2017-08-01T09:16:19.758Z,25.12
2017-08-01T09:17:31.698Z,25.10
2017-08-01T09:18:37.783Z,24.85
2017-08-01T09:19:43.826Z,25.00
2017-08-01T09:20:49.865Z,25.00
2017-08-01T09:21:55.882Z,25.08
2017-08-01T09:23:01.922Z,25.12
2017-08-01T09:24:07.938Z,25.03
2017-08-01T09:25:14.761Z,24.93
2017-08-01T09:26:20.765Z,25.07
2017-08-01T09:27:26.858Z,24.99
2017-08-01T09:28:33.773Z,24.99
2017-08-01T09:29:39.781Z,24.72
2017-08-01T09:30:45.851Z,24.74
2017-08-01T09:31:51.901Z,24.87
2017-08-01T09:32:58.537Z,25.09
2017-08-01T09:34:04.569Z,25.20
2017-08-01T09:35:10.591Z,25.30
2017-08-01T09:36:16.709Z,25.36
2017-08-01T09:37:22.721Z,25.53
2017-08-01T09:38:28.753Z,25.70
2017-08-01T09:39:34.848Z,25.80
2017-08-01T09:40:41.554Z,25.81
2017-08-01T09:41:47.619Z,25.98
2017-08-01T09:42:53.807Z,25.86
2017-08-01T09:43:59.816Z,26.04
2017-08-01T09:45:05.839Z,26.24
2017-08-01T09:46:11.919Z,26.35
2017-08-01T09:47:17.966Z,26.18
2017-08-01T09:48:23.986Z,26.35
2017-08-01T09:49:30.121Z,26.44
2017-08-01T09:50:36.227Z,26.48
2017-08-01T09:51:42.351Z,26.57
2017-08-01T09:52:48.407Z,26.64
2017-08-01T09:53:54.420Z,26.25
2017-08-01T09:55:00.476Z,26.16
2017-08-01T09:56:06.555Z,25.96
2017-08-01T09:57:12.607Z,25.89
2017-08-01T09:58:19.278Z,25.86
2017-08-01T09:59:25.306Z,26.00
2017-08-01T10:00:32.193Z,26.30
2017-08-01T10:01:38.185Z,26.32
2017-08-01T10:02:44.251Z,26.48
2017-08-01T10:03:50.319Z,26.68
2017-08-01T10:04:56.421Z,26.85
2017-08-01T10:06:02.529Z,26.90
2017-08-01T10:07:08.541Z,27.06
2017-08-01T10:08:14.567Z,27.12
2017-08-01T10:09:20.409Z,26.74
2017-08-01T10:10:26.409Z,26.88
2017-08-01T10:11:33.178Z,27.03
2017-08-01T10:12:39.192Z,27.13
2017-08-01T10:13:45.201Z,27.07
2017-08-01T10:14:51.065Z,27.17
2017-08-01T10:15:57.062Z,27.15
2017-08-01T10:17:02.910Z,26.92
2017-08-01T10:18:08.909Z,27.02
2017-08-01T10:19:14.946Z,27.24
2017-08-01T10:20:21.006Z,27.04
2017-08-01T10:21:27.626Z,26.84
2017-08-01T10:22:33.631Z,26.89
2017-08-01T10:23:39.367Z,27.04
2017-08-01T10:24:45.470Z,27.21
2017-08-01T10:25:51.518Z,27.38
2017-08-01T10:26:56.898Z,27.58
2017-08-01T10:28:02.916Z,27.55
2017-08-01T10:29:08.660Z,27.28
2017-08-01T10:30:14.384Z,27.16
2017-08-01T10:31:20.421Z,27.20
2017-08-01T10:32:26.125Z,27.18
2017-08-01T10:33:31.984Z,27.34
2017-08-01T10:34:37.783Z,27.38
2017-08-01T10:35:43.798Z,27.45
2017-08-01T10:36:49.926Z,27.37
2017-08-01T10:37:56.427Z,27.53
2017-08-01T10:39:02.150Z,27.78
2017-08-01T10:40:07.898Z,27.72
2017-08-01T10:41:13.708Z,27.99
2017-08-01T10:42:19.523Z,28.22
2017-08-01T10:43:25.591Z,28.33
2017-08-01T10:44:31.604Z,28.24
2017-08-01T10:45:37.329Z,28.09
2017-08-01T10:46:43.343Z,28.06
2017-08-01T10:47:49.165Z,28.21
2017-08-01T10:48:54.876Z,28.38
2017-08-01T10:50:00.901Z,28.11
2017-08-01T10:51:07.039Z,28.21
2017-08-01T10:52:12.767Z,28.29
2017-08-01T10:53:18.573Z,28.31
2017-08-01T10:54:24.298Z,27.94
2017-08-01T10:55:30.067Z,28.04
2017-08-01T10:56:36.169Z,28.22
2017-08-01T10:57:41.953Z,28.13
2017-08-01T10:58:48.055Z,28.35
2017-08-01T10:59:53.782Z,28.54
2017-08-01T11:00:59.501Z,28.73
2017-08-01T11:02:05.221Z,28.87
2017-08-01T11:03:10.941Z,29.02
2017-08-01T11:04:16.759Z,29.07
2017-08-01T11:05:22.575Z,29.11
2017-08-01T11:06:28.302Z,29.11
2017-08-01T11:07:34.434Z,29.28
2017-08-01T11:08:40.919Z,29.16
2017-08-01T11:09:46.701Z,29.26
2017-08-01T11:10:52.464Z,29.34
2017-08-01T11:11:58.245Z,29.43
2017-08-01T11:13:04.002Z,29.46
2017-08-01T11:14:09.721Z,29.46
2017-08-01T11:15:15.505Z,29.56
2017-08-01T11:16:21.249Z,29.58
2017-08-01T11:17:27.681Z,29.57
2017-08-01T11:18:33.399Z,29.50
2017-08-01T11:19:39.129Z,29.62
2017-08-01T11:20:44.992Z,29.58
2017-08-01T11:21:50.725Z,29.68
2017-08-01T11:22:56.432Z,29.72
2017-08-01T11:24:02.154Z,29.75
2017-08-01T11:25:07.959Z,29.81
2017-08-01T11:26:13.804Z,29.87
2017-08-01T11:27:19.533Z,29.93
2017-08-01T11:28:25.246Z,29.96
2017-08-01T11:29:30.978Z,29.99
2017-08-01T11:30:36.699Z,30.04
2017-08-01T11:31:43.055Z,29.98
2017-08-01T11:32:48.900Z,29.84
2017-08-01T11:33:54.664Z,29.97
2017-08-01T11:35:00.384Z,29.97
2017-08-01T11:36:06.095Z,30.01
2017-08-01T11:37:11.850Z,29.98
2017-08-01T11:38:17.585Z,29.86
2017-08-01T11:39:23.321Z,29.90
2017-08-01T11:40:29.825Z,29.96
2017-08-01T11:41:35.646Z,29.87
2017-08-01T11:42:42.113Z,29.86
2017-08-01T11:43:47.829Z,29.92
2017-08-01T11:44:53.614Z,30.06
2017-08-01T11:45:59.335Z,30.16
2017-08-01T11:47:05.054Z,30.22
2017-08-01T11:48:10.819Z,30.04
2017-08-01T11:49:17.178Z,30.09
2017-08-01T11:50:23.013Z,30.17
2017-08-01T11:51:28.733Z,30.25
2017-08-01T11:52:34.454Z,30.22
2017-08-01T11:53:40.299Z,30.22
2017-08-01T11:54:46.633Z,30.24
2017-08-01T11:55:53.104Z,30.24
2017-08-01T11:56:58.847Z,30.24
2017-08-01T11:58:04.563Z,30.28
2017-08-01T11:59:10.332Z,30.17
2017-08-01T12:00:16.050Z,30.20
2017-08-01T12:01:21.839Z,30.22
2017-08-01T12:02:27.554Z,30.22
2017-08-01T12:03:33.279Z,30.21
2017-08-01T12:04:39.046Z,30.18
2017-08-01T12:05:44.639Z,30.23
2017-08-01T12:06:50.441Z,30.22
2017-08-01T12:07:56.240Z,30.20
2017-08-01T12:09:01.971Z,30.22
2017-08-01T12:10:07.521Z,30.29
2017-08-01T12:11:13.320Z,30.30
2017-08-01T12:12:19.673Z,30.30
2017-08-01T12:13:25.430Z,30.41
2017-08-01T12:14:31.162Z,30.50
2017-08-01T12:15:36.663Z,30.58
2017-08-01T12:16:42.858Z,30.70
2017-08-01T12:17:48.584Z,30.81
2017-08-01T12:18:54.337Z,30.76
2017-08-01T12:20:00.046Z,30.71
2017-08-01T12:21:05.790Z,30.68
2017-08-01T12:22:11.503Z,30.72
2017-08-01T12:23:17.214Z,30.68
2017-08-01T12:24:23.037Z,30.74
2017-08-01T12:25:28.838Z,30.82
2017-08-01T12:26:34.605Z,30.89
2017-08-01T12:27:40.401Z,30.86
2017-08-01T12:28:46.234Z,30.89
2017-08-01T12:29:52.045Z,30.95
2017-08-01T12:30:58.957Z,30.90
2017-08-01T12:32:04.797Z,30.88
2017-08-01T12:33:10.578Z,30.92
2017-08-01T12:34:16.321Z,30.86
2017-08-01T12:35:22.042Z,30.92
2017-08-01T12:36:28.802Z,30.98
2017-08-01T12:37:34.557Z,31.01
2017-08-01T12:38:40.369Z,31.04
2017-08-01T12:39:46.166Z,31.05
2017-08-01T12:40:51.895Z,30.97
2017-08-01T12:41:57.626Z,30.97
2017-08-01T12:43:03.395Z,30.92
2017-08-01T12:44:09.124Z,30.80
2017-08-01T12:45:15.450Z,30.42
2017-08-01T12:46:21.173Z,30.54
2017-08-01T12:47:27.000Z,30.68
2017-08-01T12:48:32.769Z,30.75
2017-08-01T12:49:38.597Z,30.72
2017-08-01T12:50:44.405Z,30.83
2017-08-01T12:51:53.019Z,30.83
2017-08-01T12:53:00.071Z,30.89
2017-08-01T12:54:05.818Z,30.99
2017-08-01T12:55:11.546Z,30.97
2017-08-01T12:56:17.277Z,31.07
2017-08-01T12:57:23.086Z,31.15
2017-08-01T12:58:28.898Z,31.15
2017-08-01T12:59:34.739Z,31.14
2017-08-01T13:00:40.312Z,31.16
2017-08-01T13:01:46.039Z,31.18
2017-08-01T13:02:52.065Z,31.11
2017-08-01T13:03:57.790Z,31.22
2017-08-01T13:05:03.271Z,31.31
2017-08-01T13:06:08.990Z,31.41
2017-08-01T13:07:14.698Z,31.49
2017-08-01T13:08:20.461Z,31.50
2017-08-01T13:09:26.278Z,31.48
2017-08-01T13:10:32.804Z,31.49
2017-08-01T13:11:39.317Z,31.47
2017-08-01T13:12:45.048Z,31.38
2017-08-01T13:13:50.762Z,31.33
2017-08-01T13:14:56.480Z,31.33
2017-08-01T13:16:02.258Z,31.27
2017-08-01T13:17:07.801Z,31.30
2017-08-01T13:18:13.511Z,31.32
2017-08-01T13:19:19.298Z,31.37
2017-08-01T13:20:25.100Z,31.46
2017-08-01T13:21:30.873Z,31.48
2017-08-01T13:22:36.663Z,31.54
2017-08-01T13:23:42.389Z,31.57
2017-08-01T13:24:48.105Z,31.64
2017-08-01T13:25:53.838Z,31.63
2017-08-01T13:26:59.590Z,31.69
2017-08-01T13:28:05.392Z,31.64
2017-08-01T13:29:11.107Z,31.69
2017-08-01T13:30:16.828Z,31.61
2017-08-01T13:31:22.618Z,31.54
2017-08-01T13:32:28.383Z,31.54
2017-08-01T13:33:34.179Z,31.56
2017-08-01T13:34:40.260Z,31.55
2017-08-01T13:35:45.981Z,31.58
2017-08-01T13:36:51.710Z,31.62
2017-08-01T13:37:57.530Z,31.53
2017-08-01T13:39:03.266Z,31.47
2017-08-01T13:40:09.086Z,31.37
2017-08-01T13:41:15.256Z,31.36
2017-08-01T13:42:21.713Z,31.26
2017-08-01T13:43:27.475Z,31.27
2017-08-01T13:44:33.219Z,31.20
2017-08-01T13:45:39.714Z,31.23
2017-08-01T13:46:45.510Z,31.26
2017-08-01T13:47:51.235Z,31.29
2017-08-01T13:48:57.061Z,31.30
2017-08-01T13:50:02.808Z,31.23
2017-08-01T13:51:07.857Z,31.20
2017-08-01T13:52:13.614Z,31.17
2017-08-01T13:53:20.118Z,31.16
2017-08-01T13:54:25.960Z,31.19
2017-08-01T13:55:31.675Z,31.14
2017-08-01T13:56:37.449Z,31.14
2017-08-01T13:57:43.162Z,31.13
2017-08-01T13:58:49.548Z,31.16
2017-08-01T13:59:55.342Z,31.23
2017-08-01T14:01:01.843Z,31.13
2017-08-01T14:02:07.565Z,31.21
2017-08-01T14:03:13.415Z,31.20
2017-08-01T14:04:19.153Z,31.27
2017-08-01T14:05:24.919Z,31.29
2017-08-01T14:06:30.811Z,31.27
2017-08-01T14:07:36.588Z,31.26
2017-08-01T14:08:42.322Z,31.22
2017-08-01T14:09:48.038Z,31.23
2017-08-01T14:10:53.909Z,31.19
2017-08-01T14:11:59.670Z,31.24